Time;durP1;ratioP1;P1;durP2;ratioP2;P2;SDS_P1;SDS_P2;PMS_P1;PMS_P2;Temp;Humidity;BMP_temperature;BMP_pressure;BME280_temperature;BME280_humidity;BME280_pressure;Samples;Min_cycle;Max_cycle;Signal;HPM_P1;HPM_P2
2021/08/09 00:01:48;;;;;;;6.85;1.65;;;11.40;97.30;;;;;;5051784;28;20417;-71
2021/08/09 00:04:14;;;;;;;6.00;1.50;;;11.30;97.40;;;;;;5050159;28;20021;-71
2021/08/09 00:06:40;;;;;;;3.72;1.77;;;11.30;97.40;;;;;;5051243;28;20021;-70
2021/08/09 00:09:06;;;;;;;5.10;1.60;;;11.30;97.40;;;;;;5051298;28;20017;-71
2021/08/09 00:11:33;;;;;;;5.20;1.50;;;11.20;97.60;;;;;;5051030;28;20078;-71
2021/08/09 00:13:59;;;;;;;3.45;1.40;;;11.10;97.70;;;;;;5050386;28;20027;-70
2021/08/09 00:16:24;;;;;;;3.72;1.65;;;11.10;97.80;;;;;;5052613;28;20430;-71
2021/08/09 00:18:50;;;;;;;4.32;2.00;;;11.00;97.70;;;;;;5051363;28;20021;-71
2021/08/09 00:21:18;;;;;;;4.10;1.60;;;11.00;97.90;;;;;;5050953;28;20318;-71
2021/08/09 00:23:44;;;;;;;6.43;2.00;;;11.00;97.90;;;;;;5051441;28;20025;-71
2021/08/09 00:26:10;;;;;;;4.32;1.92;;;11.10;97.90;;;;;;5050835;28;20029;-71
2021/08/09 00:28:38;;;;;;;7.40;1.88;;;11.10;97.80;;;;;;5051215;28;20438;-71
2021/08/09 00:31:04;;;;;;;4.50;1.50;;;11.20;97.70;;;;;;5049757;28;20090;-71
2021/08/09 00:33:29;;;;;;;7.13;1.40;;;11.50;97.20;;;;;;5051149;28;20032;-71
2021/08/09 00:35:55;;;;;;;5.18;1.65;;;11.50;97.20;;;;;;5050372;28;20072;-70
2021/08/09 00:38:21;;;;;;;6.10;2.05;;;11.60;97.10;;;;;;5051552;28;20029;-71
2021/08/09 00:40:47;;;;;;;4.72;1.27;;;11.60;97.00;;;;;;5050946;28;20027;-71
2021/08/09 00:43:13;;;;;;;2.95;1.45;;;11.60;96.90;;;;;;5050758;28;20046;-71
2021/08/09 00:45:39;;;;;;;3.92;1.73;;;11.70;96.70;;;;;;5050467;28;20063;-71
2021/08/09 00:48:09;;;;;;;3.17;1.55;;;11.90;96.50;;;;;;5050495;28;20067;-71
2021/08/09 00:50:34;;;;;;;10.20;1.77;;;11.90;96.40;;;;;;5050798;28;20060;-70
2021/08/09 00:53:04;;;;;;;5.18;1.50;;;11.80;96.60;;;;;;5051117;28;20060;-71
2021/08/09 00:55:30;;;;;;;4.88;1.55;;;11.90;96.40;;;;;;5050450;28;20076;-71
2021/08/09 00:57:57;;;;;;;3.70;1.60;;;12.00;96.20;;;;;;5051301;28;20056;-70
2021/08/09 01:00:23;;;;;;;3.97;1.63;;;12.00;96.00;;;;;;5050103;28;20025;-71
2021/08/09 01:02:49;;;;;;;5.93;1.60;;;12.10;95.90;;;;;;5050664;28;20112;-71
2021/08/09 01:05:15;;;;;;;4.00;1.35;;;12.20;95.80;;;;;;5050828;28;20406;-71
2021/08/09 01:07:45;;;;;;;3.65;1.50;;;12.10;96.10;;;;;;5050516;28;20437;-71
2021/08/09 01:10:25;;;;;;;4.13;1.40;;;12.10;95.80;;;;;;5051120;28;20056;-71
2021/08/09 01:13:02;;;;;;;5.05;1.88;;;12.10;95.80;;;;;;5050666;28;20116;-71
2021/08/09 01:15:38;;;;;;;6.90;1.55;;;11.90;96.70;;;;;;5048907;28;20329;-71
2021/08/09 01:18:06;;;;;;;2.83;1.40;;;11.60;97.00;;;;;;5051158;28;20029;-71
2021/08/09 01:20:54;;;;;;;2.72;1.50;;;11.40;97.40;;;;;;5051142;28;20021;-71
2021/08/09 01:23:47;;;;;;;4.70;1.70;;;11.20;97.70;;;;;;5050936;28;20542;-71
2021/08/09 01:26:16;;;;;;;4.38;1.60;;;11.20;97.80;;;;;;5049363;28;20057;-71
2021/08/09 01:28:43;;;;;;;3.55;1.60;;;11.20;97.70;;;;;;5050174;28;20021;-71
2021/08/09 01:31:09;;;;;;;3.38;1.70;;;11.30;97.80;;;;;;5049613;28;20029;-71
2021/08/09 01:33:36;;;;;;;5.28;1.52;;;11.30;97.70;;;;;;5050328;28;20029;-71
2021/08/09 01:36:04;;;;;;;5.85;1.50;;;11.20;97.80;;;;;;5050033;28;20041;-71
2021/08/09 01:38:31;;;;;;;9.40;1.92;;;11.10;97.90;;;;;;5050145;28;21516;-71
2021/08/09 01:41:03;;;;;;;5.60;1.73;;;11.00;97.90;;;;;;5050988;28;20051;-71
2021/08/09 01:43:30;;;;;;;3.65;1.80;;;11.00;98.00;;;;;;5054066;28;20029;-71
2021/08/09 01:45:57;;;;;;;3.78;1.67;;;11.00;98.00;;;;;;5054411;28;20037;-71
2021/08/09 01:48:24;;;;;;;3.45;1.70;;;10.90;98.00;;;;;;5053783;28;20033;-71
2021/08/09 01:50:50;;;;;;;4.25;1.77;;;11.00;98.00;;;;;;5053713;28;20025;-71
2021/08/09 01:53:17;;;;;;;3.88;1.70;;;10.90;98.00;;;;;;5053171;28;20040;-71
2021/08/09 01:55:43;;;;;;;4.68;2.03;;;10.80;98.00;;;;;;5053662;28;20090;-70
2021/08/09 01:58:09;;;;;;;4.05;1.75;;;10.70;98.00;;;;;;5052866;28;20029;-70
2021/08/09 02:00:35;;;;;;;4.00;1.75;;;10.70;98.00;;;;;;5052968;28;20025;-70
2021/08/09 02:03:01;;;;;;;2.95;1.50;;;10.70;98.00;;;;;;5053551;28;20452;-70
2021/08/09 02:05:26;;;;;;;4.97;1.50;;;10.80;98.00;;;;;;5053413;28;20025;-69
2021/08/09 02:07:54;;;;;;;4.68;2.00;;;10.80;98.00;;;;;;5053534;28;20029;-71
2021/08/09 02:10:23;;;;;;;3.78;1.48;;;10.80;98.00;;;;;;5053914;28;20024;-70
2021/08/09 02:13:26;;;;;;;6.00;2.22;;;10.70;98.00;;;;;;5053229;28;20025;-71
2021/08/09 02:16:01;;;;;;;6.00;1.90;;;10.70;98.00;;;;;;5052476;28;20029;-71
2021/08/09 02:18:39;;;;;;;4.95;2.00;;;10.70;98.00;;;;;;5058184;28;20078;-71
2021/08/09 02:21:08;;;;;;;4.07;1.85;;;10.60;98.00;;;;;;5058083;28;20032;-72
2021/08/09 02:23:57;;;;;;;4.35;1.88;;;10.60;98.00;;;;;;5056738;28;20382;-71
2021/08/09 02:26:30;;;;;;;3.42;1.60;;;10.60;98.00;;;;;;5054524;28;20060;-70
2021/08/09 02:29:02;;;;;;;5.03;1.60;;;10.70;98.00;;;;;;5056766;28;20025;-70
2021/08/09 02:31:31;;;;;;;4.32;1.80;;;10.70;98.00;;;;;;5057974;28;20021;-70
2021/08/09 02:33:58;;;;;;;5.05;1.75;;;10.70;98.00;;;;;;5057476;28;20028;-70
2021/08/09 02:36:25;;;;;;;4.57;1.90;;;10.70;98.00;;;;;;5057715;28;20036;-71
2021/08/09 02:38:51;;;;;;;4.70;1.98;;;10.80;98.00;;;;;;5057720;28;20409;-71
2021/08/09 02:41:17;;;;;;;3.95;1.83;;;10.80;98.00;;;;;;5056708;28;20104;-70
2021/08/09 02:43:43;;;;;;;5.10;1.80;;;10.80;98.00;;;;;;5057510;28;20017;-71
2021/08/09 02:46:09;;;;;;;5.47;2.35;;;10.80;98.00;;;;;;5055530;28;20033;-71
2021/08/09 02:48:36;;;;;;;5.10;2.05;;;10.70;98.00;;;;;;5057577;28;20029;-70
2021/08/09 02:51:02;;;;;;;4.53;2.20;;;10.50;98.00;;;;;;5057635;28;20036;-70
2021/08/09 02:53:28;;;;;;;6.18;2.42;;;10.50;98.00;;;;;;5057263;28;20100;-70
2021/08/09 02:56:01;;;;;;;6.38;2.05;;;10.50;98.00;;;;;;5057351;28;20033;-70
2021/08/09 02:58:27;;;;;;;3.60;1.90;;;10.50;98.00;;;;;;5057748;28;20120;-71
2021/08/09 03:00:56;;;;;;;5.22;1.83;;;10.40;98.00;;;;;;5056192;28;20100;-71
2021/08/09 03:03:24;;;;;;;6.50;2.20;;;10.40;98.00;;;;;;5057146;28;20025;-71
2021/08/09 03:05:55;;;;;;;3.10;1.70;;;10.30;98.00;;;;;;5055095;28;20418;-70
2021/08/09 03:08:21;;;;;;;3.38;1.83;;;10.30;98.00;;;;;;5052058;28;20376;-71
2021/08/09 03:10:47;;;;;;;3.70;2.05;;;10.40;98.00;;;;;;5053477;28;20418;-70
2021/08/09 03:13:13;;;;;;;6.40;2.05;;;10.40;98.00;;;;;;5052354;28;20063;-70
2021/08/09 03:15:41;;;;;;;8.32;2.22;;;10.40;98.00;;;;;;5051054;28;20417;-71
2021/08/09 03:18:06;;;;;;;4.85;1.90;;;10.40;98.00;;;;;;5052426;28;20071;-70
2021/08/09 03:20:32;;;;;;;4.93;2.20;;;10.40;98.00;;;;;;5052051;28;20028;-71
2021/08/09 03:22:58;;;;;;;6.53;2.75;;;10.40;98.00;;;;;;5052697;28;20476;-70
2021/08/09 03:25:23;;;;;;;6.57;2.05;;;10.40;98.00;;;;;;5052233;28;20485;-70
2021/08/09 03:27:49;;;;;;;4.30;2.17;;;10.50;98.00;;;;;;5051776;28;21510;-73
2021/08/09 03:30:16;;;;;;;5.57;2.15;;;10.60;98.00;;;;;;5051179;28;20374;-70
2021/08/09 03:32:42;;;;;;;5.07;2.10;;;10.60;98.00;;;;;;5051727;28;20414;-70
2021/08/09 03:35:08;;;;;;;8.07;2.15;;;10.70;98.00;;;;;;5051517;28;20049;-70
2021/08/09 03:37:36;;;;;;;4.80;2.03;;;10.70;98.00;;;;;;5052121;28;20025;-70
2021/08/09 03:40:02;;;;;;;11.73;2.38;;;10.70;98.00;;;;;;5052020;28;20055;-70
2021/08/09 03:42:27;;;;;;;4.95;2.38;;;10.70;98.00;;;;;;5052597;28;20390;-70
2021/08/09 03:44:53;;;;;;;5.32;2.25;;;10.70;98.00;;;;;;5050158;28;20108;-70
2021/08/09 03:47:19;;;;;;;4.55;1.80;;;10.60;98.00;;;;;;5052985;28;20413;-71
2021/08/09 03:49:44;;;;;;;6.78;1.98;;;10.70;98.00;;;;;;5051975;28;20042;-71
2021/08/09 03:52:10;;;;;;;7.15;2.28;;;10.80;98.00;;;;;;5051476;28;20075;-70
2021/08/09 03:54:36;;;;;;;5.93;2.00;;;10.80;98.00;;;;;;5051710;28;20037;-71
2021/08/09 03:57:02;;;;;;;5.07;1.98;;;10.80;98.00;;;;;;5051362;28;20048;-70
2021/08/09 03:59:28;;;;;;;5.07;2.13;;;10.90;98.00;;;;;;5050508;28;20053;-70
2021/08/09 04:01:53;;;;;;;4.05;1.92;;;10.90;98.00;;;;;;5051515;28;20325;-71
2021/08/09 04:04:19;;;;;;;8.13;2.75;;;10.80;98.00;;;;;;5050960;28;20021;-70
2021/08/09 04:06:45;;;;;;;3.75;1.80;;;10.80;98.00;;;;;;5051411;28;20053;-71
2021/08/09 04:09:10;;;;;;;4.20;2.03;;;10.80;98.00;;;;;;5051018;28;20056;-71
2021/08/09 04:11:36;;;;;;;6.47;2.10;;;10.80;98.00;;;;;;5051660;28;20044;-70
2021/08/09 04:14:03;;;;;;;3.75;1.60;;;10.90;98.00;;;;;;5050281;28;20033;-70
2021/08/09 04:16:29;;;;;;;5.10;1.80;;;10.90;98.00;;;;;;5050611;28;20037;-71
2021/08/09 04:18:55;;;;;;;5.80;1.80;;;10.90;98.00;;;;;;5049992;28;20028;-71
2021/08/09 04:21:21;;;;;;;5.40;1.60;;;11.00;98.00;;;;;;5050535;28;20025;-70
2021/08/09 04:23:48;;;;;;;3.60;1.73;;;11.00;98.00;;;;;;5051085;28;20086;-70
2021/08/09 04:26:15;;;;;;;5.45;2.00;;;11.00;98.00;;;;;;5050771;28;20028;-70
2021/08/09 04:28:42;;;;;;;5.50;2.03;;;10.90;98.00;;;;;;5051239;28;20029;-70
2021/08/09 04:31:07;;;;;;;6.65;2.40;;;10.90;98.00;;;;;;5049163;28;20385;-70
2021/08/09 04:33:43;;;;;;;3.38;1.67;;;10.90;98.00;;;;;;5051300;28;20054;-70
2021/08/09 04:36:12;;;;;;;6.68;2.50;;;10.90;98.00;;;;;;5073570;28;20131;-70
2021/08/09 04:38:38;;;;;;;3.50;1.80;;;10.90;98.00;;;;;;5049377;28;20029;-71
2021/08/09 04:41:08;;;;;;;3.13;1.55;;;11.10;98.00;;;;;;5050045;28;20462;-70
2021/08/09 04:43:39;;;;;;;4.30;1.90;;;11.10;98.00;;;;;;5050948;28;20018;-70
2021/08/09 04:46:06;;;;;;;3.47;1.60;;;11.10;98.00;;;;;;5048864;28;20033;-70
2021/08/09 04:48:35;;;;;;;6.63;2.25;;;11.20;98.00;;;;;;5051609;28;20021;-70
2021/08/09 04:51:01;;;;;;;10.75;3.15;;;11.30;98.00;;;;;;5050724;28;20025;-71
2021/08/09 04:53:26;;;;;;;8.57;2.10;;;11.30;98.00;;;;;;5050950;28;20052;-69
2021/08/09 04:55:52;;;;;;;4.22;1.80;;;11.20;98.00;;;;;;5050973;28;20116;-70
2021/08/09 04:58:18;;;;;;;6.72;1.77;;;11.20;98.00;;;;;;5051455;28;20421;-69
2021/08/09 05:00:46;;;;;;;5.85;1.75;;;11.30;98.00;;;;;;5049893;28;20017;-71
2021/08/09 05:03:12;;;;;;;3.72;1.48;;;11.30;98.00;;;;;;5050973;28;20028;-70
2021/08/09 05:05:38;;;;;;;6.20;1.92;;;11.20;98.00;;;;;;5050598;28;20029;-71
2021/08/09 05:08:04;;;;;;;4.65;1.50;;;11.20;98.00;;;;;;5050285;28;20028;-71
2021/08/09 05:10:29;;;;;;;7.30;1.95;;;11.20;98.00;;;;;;5040477;28;20044;-71
2021/08/09 05:12:55;;;;;;;2.95;1.70;;;11.20;98.00;;;;;;5044535;28;20029;-71
2021/08/09 05:15:23;;;;;;;5.15;1.80;;;11.20;98.00;;;;;;5035539;28;20030;-70
2021/08/09 05:17:48;;;;;;;6.95;1.88;;;11.20;98.00;;;;;;5040555;28;20037;-71
2021/08/09 05:20:17;;;;;;;6.07;1.77;;;11.30;98.00;;;;;;5048605;28;20013;-70
2021/08/09 05:22:43;;;;;;;5.53;2.30;;;11.30;98.00;;;;;;5043036;28;20099;-70
2021/08/09 05:25:10;;;;;;;5.18;1.85;;;11.30;98.00;;;;;;5044333;28;20084;-70
2021/08/09 05:27:39;;;;;;;4.88;1.60;;;11.30;98.00;;;;;;5043965;28;20432;-71
2021/08/09 05:30:07;;;;;;;5.70;1.75;;;11.40;98.00;;;;;;5039896;28;20032;-70
2021/08/09 05:32:33;;;;;;;4.13;1.95;;;11.40;98.00;;;;;;5044187;28;20026;-71
2021/08/09 05:34:59;;;;;;;4.30;1.75;;;11.50;98.00;;;;;;5044382;28;20037;-71
2021/08/09 05:37:28;;;;;;;5.90;1.90;;;11.50;98.00;;;;;;5044527;28;20036;-71
2021/08/09 05:39:56;;;;;;;5.07;1.60;;;11.60;98.00;;;;;;5046621;28;20438;-71
2021/08/09 05:42:21;;;;;;;5.68;2.17;;;11.70;98.00;;;;;;5046370;28;20023;-72
2021/08/09 05:44:47;;;;;;;5.68;2.60;;;11.80;98.00;;;;;;5037072;28;20410;-71
2021/08/09 05:47:13;;;;;;;6.43;1.90;;;11.90;98.00;;;;;;5050576;28;20025;-71
2021/08/09 05:49:39;;;;;;;3.60;1.85;;;12.10;98.00;;;;;;5059962;28;20060;-71
2021/08/09 05:52:04;;;;;;;5.25;1.70;;;12.30;98.00;;;;;;5058941;28;20108;-71
2021/08/09 05:54:30;;;;;;;5.22;1.70;;;12.40;98.00;;;;;;5058720;28;20033;-71
2021/08/09 05:56:56;;;;;;;5.43;2.00;;;12.60;98.00;;;;;;5057979;28;20031;-71
2021/08/09 05:59:21;;;;;;;4.40;1.23;;;12.70;98.00;;;;;;5052383;28;20105;-71
2021/08/09 06:01:47;;;;;;;6.25;1.67;;;12.80;98.00;;;;;;5047271;28;20027;-71
2021/08/09 06:04:13;;;;;;;3.72;1.65;;;12.90;97.80;;;;;;5058595;28;20055;-71
2021/08/09 06:06:38;;;;;;;4.40;1.65;;;13.00;97.80;;;;;;5044513;28;20031;-71
2021/08/09 06:09:04;;;;;;;4.35;1.58;;;13.10;97.90;;;;;;5038817;28;20322;-71
2021/08/09 06:11:30;;;;;;;4.15;1.70;;;13.20;97.90;;;;;;5047516;28;20021;-71
2021/08/09 06:13:55;;;;;;;3.63;1.60;;;13.40;97.90;;;;;;5037107;28;20076;-71
2021/08/09 06:16:21;;;;;;;2.75;1.25;;;13.60;97.90;;;;;;5051150;28;20028;-71
2021/08/09 06:18:47;;;;;;;3.33;1.60;;;13.80;97.90;;;;;;5056431;28;20377;-71
2021/08/09 06:21:12;;;;;;;4.13;1.60;;;13.90;97.60;;;;;;5056507;28;20040;-71
2021/08/09 06:23:38;;;;;;;4.05;1.48;;;13.90;97.50;;;;;;5058277;28;20021;-71
2021/08/09 06:26:04;;;;;;;4.15;1.60;;;14.00;97.40;;;;;;5045347;28;20071;-71
2021/08/09 06:28:29;;;;;;;5.18;1.58;;;14.20;97.50;;;;;;5037912;28;20038;-71
2021/08/09 06:30:55;;;;;;;4.63;1.77;;;14.30;97.20;;;;;;5051144;28;20410;-71
2021/08/09 06:33:21;;;;;;;2.88;1.40;;;14.40;97.00;;;;;;5058038;28;20057;-71
2021/08/09 06:35:46;;;;;;;8.48;3.70;;;14.60;96.50;;;;;;5051218;28;20358;-71
2021/08/09 06:38:12;;;;;;;6.97;2.85;;;14.80;96.10;;;;;;5055501;28;20029;-71
2021/08/09 06:40:42;;;;;;;6.07;1.90;;;14.90;95.10;;;;;;5041346;28;20378;-70
2021/08/09 06:43:08;;;;;;;5.18;1.30;;;15.10;94.80;;;;;;5037713;28;20032;-71
2021/08/09 06:45:39;;;;;;;4.35;1.60;;;15.20;94.90;;;;;;5037702;28;20117;-71
2021/08/09 06:48:05;;;;;;;4.53;1.45;;;15.40;94.70;;;;;;5040898;28;20029;-71
2021/08/09 06:50:31;;;;;;;3.65;1.50;;;15.70;94.10;;;;;;5057669;28;20032;-71
2021/08/09 06:52:59;;;;;;;5.53;2.05;;;15.90;92.70;;;;;;5055249;28;20036;-71
2021/08/09 06:55:24;;;;;;;3.40;1.30;;;16.00;91.90;;;;;;5037600;28;20052;-71
2021/08/09 06:57:50;;;;;;;3.30;1.45;;;16.00;91.10;;;;;;5037750;28;20025;-71
2021/08/09 07:00:16;;;;;;;2.85;1.33;;;16.10;91.00;;;;;;5055972;28;20032;-72
2021/08/09 07:02:42;;;;;;;4.15;1.60;;;16.20;91.50;;;;;;5057418;28;20052;-71
2021/08/09 07:05:08;;;;;;;4.25;1.73;;;16.30;91.70;;;;;;5038056;28;20037;-71
2021/08/09 07:07:33;;;;;;;2.25;1.08;;;16.40;92.00;;;;;;5041378;28;20033;-71
2021/08/09 07:09:59;;;;;;;3.20;1.35;;;16.50;91.60;;;;;;5056417;28;20024;-72
2021/08/09 07:12:25;;;;;;;5.90;1.63;;;16.70;91.40;;;;;;5042519;28;20034;-71
2021/08/09 07:14:51;;;;;;;2.70;1.10;;;16.70;92.00;;;;;;5035933;28;20349;-71
2021/08/09 07:17:16;;;;;;;3.28;0.93;;;16.80;90.40;;;;;;5038637;28;20114;-71
2021/08/09 07:19:42;;;;;;;2.67;0.95;;;17.10;87.70;;;;;;5037261;28;20107;-71
2021/08/09 07:22:07;;;;;;;2.50;1.15;;;17.30;83.60;;;;;;5051958;28;20060;-71
2021/08/09 07:24:35;;;;;;;3.13;1.13;;;17.50;81.60;;;;;;5057212;28;20457;-71
2021/08/09 07:27:01;;;;;;;3.92;1.58;;;17.70;81.70;;;;;;5043932;28;20018;-71
2021/08/09 07:29:28;;;;;;;3.03;1.08;;;17.90;81.70;;;;;;5035947;28;20489;-71
2021/08/09 07:31:54;;;;;;;6.80;1.58;;;17.90;80.50;;;;;;5037993;28;20115;-71
2021/08/09 07:34:19;;;;;;;3.95;0.90;;;18.20;80.80;;;;;;5035827;28;20132;-71
2021/08/09 07:36:45;;;;;;;3.10;1.10;;;18.10;79.50;;;;;;5040902;28;20087;-71
2021/08/09 07:39:11;;;;;;;7.68;1.35;;;18.00;79.80;;;;;;5036462;28;20032;-71
2021/08/09 07:41:36;;;;;;;4.28;1.20;;;18.20;80.70;;;;;;5049899;28;20388;-71
2021/08/09 07:44:05;;;;;;;3.25;1.00;;;18.50;78.30;;;;;;5055446;28;20440;-70
2021/08/09 07:46:33;;;;;;;2.40;1.00;;;18.60;77.60;;;;;;5051627;28;20033;-70
2021/08/09 07:48:59;;;;;;;2.33;0.88;;;19.00;77.40;;;;;;5056720;28;20322;-70
2021/08/09 07:51:24;;;;;;;3.50;1.13;;;20.00;76.00;;;;;;5054928;28;20087;-70
2021/08/09 07:53:53;;;;;;;3.30;1.00;;;21.20;72.70;;;;;;5056540;28;20078;-71
2021/08/09 07:56:18;;;;;;;3.85;1.10;;;22.40;69.50;;;;;;5046755;28;20061;-71
2021/08/09 07:58:44;;;;;;;2.42;0.82;;;23.80;65.40;;;;;;5056236;28;20370;-72
2021/08/09 08:01:10;;;;;;;4.40;0.88;;;24.10;64.10;;;;;;5048379;28;20040;-70
2021/08/09 08:03:35;;;;;;;3.40;0.88;;;24.30;63.60;;;;;;5054760;28;20040;-70
2021/08/09 08:06:01;;;;;;;2.90;1.00;;;24.20;62.30;;;;;;5037818;28;20068;-71
2021/08/09 08:08:26;;;;;;;2.45;0.82;;;23.80;64.40;;;;;;5035313;28;20487;-71
2021/08/09 08:10:52;;;;;;;4.32;1.00;;;23.60;64.10;;;;;;5054329;28;20108;-71
2021/08/09 08:13:18;;;;;;;3.00;1.02;;;23.60;64.90;;;;;;5040641;28;20033;-71
2021/08/09 08:15:44;;;;;;;2.15;0.80;;;23.20;63.60;;;;;;5034821;28;20115;-71
2021/08/09 08:18:10;;;;;;;2.40;1.00;;;23.20;65.80;;;;;;5049761;28;20025;-71
2021/08/09 08:20:35;;;;;;;2.08;0.77;;;23.60;65.10;;;;;;5055291;28;20033;-70
2021/08/09 08:23:05;;;;;;;3.22;0.90;;;23.90;65.50;;;;;;5043942;28;20025;-71
2021/08/09 08:25:32;;;;;;;2.63;1.00;;;23.70;63.40;;;;;;5036158;28;20082;-70
2021/08/09 08:28:01;;;;;;;5.68;1.30;;;23.40;64.80;;;;;;5046067;28;20036;-70
2021/08/09 08:30:26;;;;;;;2.53;1.10;;;23.60;64.70;;;;;;5033801;28;20029;-70
2021/08/09 08:32:52;;;;;;;3.10;1.20;;;23.80;63.30;;;;;;5036059;28;20028;-70
2021/08/09 08:35:18;;;;;;;3.00;1.02;;;24.20;64.70;;;;;;5035772;28;20422;-71
2021/08/09 08:37:43;;;;;;;4.43;1.00;;;25.10;61.90;;;;;;5035876;28;20021;-70
2021/08/09 08:40:09;;;;;;;3.03;1.00;;;25.40;61.90;;;;;;5053382;28;20052;-70
2021/08/09 08:42:35;;;;;;;4.38;1.00;;;25.50;61.00;;;;;;5054876;28;20021;-70
2021/08/09 08:45:04;;;;;;;3.25;0.88;;;25.50;61.50;;;;;;5054590;28;20299;-70
2021/08/09 08:47:31;;;;;;;4.03;1.08;;;25.40;62.10;;;;;;5055787;28;20032;-70
2021/08/09 08:49:58;;;;;;;4.05;0.90;;;26.00;59.80;;;;;;5039834;28;20033;-70
2021/08/09 08:52:24;;;;;;;3.90;0.80;;;26.30;60.10;;;;;;5038967;28;20407;-71
2021/08/09 08:54:49;;;;;;;4.57;1.00;;;26.70;58.70;;;;;;5041029;28;20033;-70
2021/08/09 08:57:20;;;;;;;3.20;0.90;;;26.60;58.40;;;;;;5039924;28;20104;-70
2021/08/09 08:59:46;;;;;;;3.80;0.88;;;25.50;58.50;;;;;;5038573;28;20028;-70
2021/08/09 09:02:35;;;;;;;5.43;1.08;;;25.80;58.60;;;;;;5039882;28;20093;-71
2021/08/09 09:05:16;;;;;;;2.72;0.90;;;26.00;59.60;;;;;;5051289;28;20090;-70
2021/08/09 09:07:47;;;;;;;3.25;1.10;;;25.40;61.70;;;;;;5059687;28;20409;-70
2021/08/09 09:10:38;;;;;;;2.00;0.90;;;25.50;62.20;;;;;;5059717;28;20363;-70
2021/08/09 09:13:05;;;;;;;3.45;1.52;;;25.90;60.20;;;;;;5059688;28;20471;-70
2021/08/09 09:15:31;;;;;;;3.38;0.73;;;25.70;59.00;;;;;;5042679;28;20041;-70
2021/08/09 09:17:56;;;;;;;3.58;1.00;;;25.90;59.80;;;;;;5039547;28;20025;-71
2021/08/09 09:20:26;;;;;;;2.83;0.93;;;26.40;56.50;;;;;;5039592;28;20057;-70
2021/08/09 09:23:10;;;;;;;3.50;1.00;;;26.60;57.40;;;;;;5038383;28;20021;-71
2021/08/09 09:25:36;;;;;;;3.17;1.00;;;26.40;59.20;;;;;;5054812;28;20067;-71
2021/08/09 09:28:25;;;;;;;3.30;0.90;;;26.50;57.70;;;;;;5059355;28;20410;-71
2021/08/09 09:30:51;;;;;;;3.33;0.90;;;26.70;57.60;;;;;;5057980;28;20102;-71
2021/08/09 09:33:20;;;;;;;4.30;1.05;;;27.10;56.50;;;;;;5059129;28;20044;-70
2021/08/09 09:35:50;;;;;;;2.70;0.80;;;26.90;56.10;;;;;;5042092;28;20103;-71
2021/08/09 09:38:16;;;;;;;3.58;1.00;;;27.00;56.80;;;;;;5039114;28;20021;-71
2021/08/09 09:40:42;;;;;;;3.97;0.90;;;26.70;55.90;;;;;;5039136;28;20064;-71
2021/08/09 09:43:17;;;;;;;3.03;0.90;;;27.00;56.40;;;;;;5039087;28;20406;-71
2021/08/09 09:45:55;;;;;;;2.60;0.98;;;26.80;58.50;;;;;;5052176;28;20044;-70
2021/08/09 09:48:36;;;;;;;1.80;0.85;;;26.50;56.90;;;;;;5058613;28;20055;-71
2021/08/09 09:51:18;;;;;;;3.15;0.90;;;26.10;56.70;;;;;;5058997;28;20020;-71
2021/08/09 09:53:46;;;;;;;1.88;0.70;;;26.40;56.60;;;;;;5058810;28;20025;-71
2021/08/09 09:56:14;;;;;;;3.17;1.00;;;25.90;58.20;;;;;;5058271;28;20349;-71
2021/08/09 09:58:40;;;;;;;3.95;1.00;;;26.40;58.80;;;;;;5058834;28;20309;-70
2021/08/09 10:01:08;;;;;;;4.05;1.17;;;26.40;57.60;;;;;;5057386;28;20021;-71
2021/08/09 10:03:35;;;;;;;3.00;0.80;;;26.30;56.60;;;;;;5057860;28;20051;-71
2021/08/09 10:06:02;;;;;;;3.22;1.02;;;26.40;56.70;;;;;;5056928;28;20382;-70
2021/08/09 10:08:40;;;;;;;4.72;1.55;;;27.10;55.20;;;;;;5058565;28;20365;-71
2021/08/09 10:11:06;;;;;;;2.33;0.88;;;27.20;56.80;;;;;;5058474;28;20433;-71
2021/08/09 10:13:35;;;;;;;3.00;1.00;;;26.90;57.70;;;;;;5058398;28;20321;-71
2021/08/09 10:16:04;;;;;;;2.38;0.90;;;26.80;58.10;;;;;;5038587;28;20092;-71
2021/08/09 10:18:35;;;;;;;3.00;0.95;;;27.40;56.20;;;;;;5038482;28;20040;-70
2021/08/09 10:21:03;;;;;;;4.22;0.90;;;26.90;55.70;;;;;;5038473;28;20101;-70
2021/08/09 10:23:46;;;;;;;2.45;0.85;;;27.10;57.10;;;;;;5047948;28;20063;-70
2021/08/09 10:26:31;;;;;;;3.80;1.10;;;27.10;56.60;;;;;;5058236;28;20017;-71
2021/08/09 10:29:04;;;;;;;2.33;0.95;;;26.80;57.50;;;;;;5055065;28;20488;-70
2021/08/09 10:31:41;;;;;;;2.67;1.10;;;26.70;56.50;;;;;;5056938;28;20036;-70
2021/08/09 10:34:31;;;;;;;5.40;1.02;;;26.70;56.80;;;;;;5057977;28;20048;-71
2021/08/09 10:37:15;;;;;;;3.05;1.00;;;27.00;55.50;;;;;;5057987;28;20025;-71
2021/08/09 10:39:56;;;;;;;3.65;0.88;;;27.40;56.90;;;;;;5042360;28;20033;-70
2021/08/09 10:42:44;;;;;;;9.27;1.30;;;27.30;57.20;;;;;;5038030;28;20033;-70
2021/08/09 10:45:11;;;;;;;1.83;0.88;;;27.60;55.70;;;;;;5036685;28;20109;-70
2021/08/09 10:47:50;;;;;;;5.55;0.90;;;27.60;55.90;;;;;;5036778;28;20029;-69
2021/08/09 10:50:24;;;;;;;1.77;0.80;;;28.50;53.40;;;;;;5037810;28;20014;-70
2021/08/09 10:52:51;;;;;;;3.92;1.10;;;28.20;53.50;;;;;;5036679;28;20084;-71
2021/08/09 10:55:32;;;;;;;4.15;1.20;;;27.20;54.20;;;;;;5037686;28;20029;-71
2021/08/09 10:58:02;;;;;;;3.35;1.20;;;25.20;58.50;;;;;;5038275;28;20067;-71
2021/08/09 11:00:48;;;;;;;2.22;1.10;;;24.40;58.00;;;;;;5056354;28;20071;-71
2021/08/09 11:03:20;;;;;;;2.50;1.15;;;23.80;59.70;;;;;;5056768;28;20033;-70
2021/08/09 11:05:46;;;;;;;4.13;1.30;;;23.60;60.70;;;;;;5057496;28;20044;-70
2021/08/09 11:08:18;;;;;;;2.90;1.00;;;23.30;59.50;;;;;;5053611;28;20090;-71
2021/08/09 11:10:55;;;;;;;3.42;1.10;;;23.80;60.10;;;;;;5037201;28;20325;-71
2021/08/09 11:13:22;;;;;;;2.35;0.90;;;24.10;60.40;;;;;;5057064;28;20120;-70
2021/08/09 11:16:04;;;;;;;3.65;1.15;;;23.90;61.20;;;;;;5054283;28;20032;-71
2021/08/09 11:18:30;;;;;;;1.80;0.90;;;23.70;63.50;;;;;;5040837;28;20373;-70
2021/08/09 11:21:05;;;;;;;3.95;1.20;;;23.60;62.60;;;;;;5047561;28;20049;-70
2021/08/09 11:23:37;;;;;;;2.38;1.02;;;23.50;62.60;;;;;;5037777;28;20057;-71
2021/08/09 11:26:03;;;;;;;3.33;1.20;;;23.40;63.50;;;;;;5054862;28;20414;-71
2021/08/09 11:28:29;;;;;;;4.28;1.35;;;23.50;62.50;;;;;;5037154;28;20025;-71
2021/08/09 11:30:58;;;;;;;3.38;1.20;;;23.40;61.90;;;;;;5043576;28;20039;-71
2021/08/09 11:33:33;;;;;;;9.90;1.60;;;24.40;61.40;;;;;;5056747;28;20025;-70
2021/08/09 11:36:12;;;;;;;2.83;1.02;;;25.20;59.80;;;;;;5043461;28;20040;-71
2021/08/09 11:38:54;;;;;;;2.80;1.10;;;25.60;58.80;;;;;;5056522;28;20021;-71
2021/08/09 11:41:25;;;;;;;4.10;1.35;;;25.70;59.70;;;;;;5036679;28;20048;-70
2021/08/09 11:44:06;;;;;;;3.72;1.40;;;25.80;57.60;;;;;;5034692;28;20041;-71
2021/08/09 11:46:33;;;;;;;3.33;1.20;;;26.50;57.20;;;;;;5047609;28;20426;-71
2021/08/09 11:48:59;;;;;;;4.80;1.00;;;26.90;57.50;;;;;;5037172;28;20040;-71
2021/08/09 11:51:31;;;;;;;8.48;1.40;;;26.00;57.00;;;;;;5056778;28;20021;-71
2021/08/09 11:53:58;;;;;;;4.07;1.40;;;24.90;59.40;;;;;;5055387;28;20111;-71
2021/08/09 11:56:34;;;;;;;2.85;1.20;;;24.80;61.10;;;;;;5047361;28;20029;-71
2021/08/09 11:59:16;;;;;;;2.88;1.27;;;24.90;61.50;;;;;;5055080;28;20222;-71
2021/08/09 12:01:44;;;;;;;3.22;1.23;;;25.40;59.50;;;;;;5051430;28;20025;-71
2021/08/09 12:04:21;;;;;;;4.13;1.42;;;24.80;60.60;;;;;;5036967;28;20327;-71
2021/08/09 12:06:52;;;;;;;2.80;1.20;;;23.90;62.40;;;;;;5036336;28;20318;-71
2021/08/09 12:09:24;;;;;;;3.13;1.30;;;24.10;62.80;;;;;;5061564;28;20059;-71
2021/08/09 12:12:03;;;;;;;3.22;1.33;;;24.70;62.60;;;;;;5055124;28;20059;-71
2021/08/09 12:14:30;;;;;;;3.42;1.30;;;24.70;61.60;;;;;;5051905;28;20036;-71
2021/08/09 12:16:58;;;;;;;3.90;1.42;;;24.30;62.20;;;;;;5054628;28;20025;-71
2021/08/09 12:19:38;;;;;;;3.45;1.15;;;24.70;63.60;;;;;;5043031;28;20029;-71
2021/08/09 12:22:30;;;;;;;3.28;1.55;;;25.40;61.40;;;;;;5054729;28;20334;-71
2021/08/09 12:25:15;;;;;;;3.45;1.20;;;25.90;59.60;;;;;;5051956;28;20037;-71
2021/08/09 12:27:41;;;;;;;2.97;1.08;;;25.70;59.70;;;;;;5035750;28;20323;-71
2021/08/09 12:30:10;;;;;;;3.45;1.15;;;26.00;59.90;;;;;;5038411;28;20037;-71
2021/08/09 12:32:37;;;;;;;3.40;1.10;;;26.20;60.10;;;;;;5056022;28;20021;-71
2021/08/09 12:35:04;;;;;;;2.92;1.33;;;26.20;61.30;;;;;;5051081;28;20041;-71
2021/08/09 12:37:31;;;;;;;4.10;1.40;;;25.90;61.70;;;;;;5044434;28;20052;-71
2021/08/09 12:40:17;;;;;;;3.65;1.17;;;26.10;60.30;;;;;;5050264;28;20354;-71
2021/08/09 12:43:00;;;;;;;3.53;1.30;;;25.90;60.10;;;;;;5036029;28;20315;-71
2021/08/09 12:45:26;;;;;;;2.78;1.05;;;26.00;60.30;;;;;;5035337;28;20021;-71
2021/08/09 12:47:51;;;;;;;2.83;1.00;;;26.00;59.30;;;;;;5045365;28;20322;-71
2021/08/09 12:50:17;;;;;;;3.80;1.33;;;26.30;60.20;;;;;;5055662;28;20036;-71
2021/08/09 12:52:42;;;;;;;2.58;1.20;;;26.40;57.90;;;;;;5046427;28;20029;-71
2021/08/09 12:55:08;;;;;;;2.80;1.15;;;26.60;58.30;;;;;;5036513;28;20072;-71